Aarle-Rixtel, Netherlands
Current Conditions -  °F | °C
As of 9:55 AM on Thursday 23 Oct 2014 (Local Time) from EHVK Reporting Station
Overcast Overcast  
Wind Chill: 50°   Ceiling: 2800
Heat Index: 50°   Visibility: 6mi
Dew Point: 46°   Wind: 7mph
Humidity: 87%   Direction: 200°SSW
Pressure: 30.18"   Gusts: NA
Location:  51.51°N, 5.64°E
Report Text: EHVK 230755Z AUTO 20006KT 9999 OVC028 10/08 Q1022 BLU 22006KT 9000 BKN025
Loading
Personal Weather Stations






























Interactive Weather Map
Tropical Storm Tracking
New forecast layout! Learn more

10-Day Weather Forecast

Advertisements
Track Severe Weather on mobile